createdAt,value
2023-11-04T00:02:20.971Z,14.29
2023-11-04T00:07:23.981Z,14.16
2023-11-04T00:12:27.027Z,14.09
2023-11-04T00:17:30.533Z,14.30
2023-11-04T00:22:33.520Z,13.94
2023-11-04T00:27:36.605Z,14.07
2023-11-04T00:32:39.850Z,14.04
2023-11-04T00:37:42.946Z,13.82
2023-11-04T00:42:46.188Z,13.97
2023-11-04T00:47:49.328Z,13.84
2023-11-04T00:52:52.381Z,13.81
2023-11-04T00:57:56.808Z,13.88
2023-11-04T01:02:59.872Z,13.83
2023-11-04T01:08:02.980Z,13.94
2023-11-04T01:13:05.951Z,13.91
2023-11-04T01:18:09.562Z,13.88
2023-11-04T01:23:13.314Z,13.90
2023-11-04T01:28:16.403Z,13.79
2023-11-04T01:33:19.865Z,13.67
2023-11-04T01:38:23.015Z,13.50
2023-11-04T01:43:30.884Z,13.44
2023-11-04T01:48:33.984Z,13.61
2023-11-04T01:53:38.513Z,13.42
2023-11-04T01:58:46.217Z,13.23
2023-11-04T02:03:49.162Z,13.08
2023-11-04T02:08:52.436Z,13.06
2023-11-04T02:13:55.433Z,12.98
2023-11-04T02:18:59.099Z,12.74
2023-11-04T02:24:02.278Z,12.74
2023-11-04T02:29:05.603Z,12.41
2023-11-04T02:34:08.656Z,12.49
2023-11-04T02:39:11.703Z,12.34
2023-11-04T02:44:15.124Z,11.89
2023-11-04T02:49:18.185Z,11.52
2023-11-04T02:54:21.243Z,11.74
2023-11-04T02:59:25.829Z,12.09
2023-11-04T03:04:29.047Z,11.87
2023-11-04T03:09:32.686Z,11.71
2023-11-04T03:14:36.401Z,11.81
2023-11-04T03:19:39.847Z,11.68
2023-11-04T03:24:46.524Z,11.53
2023-11-04T03:29:49.855Z,11.30
2023-11-04T03:34:52.862Z,11.10
2023-11-04T03:39:55.931Z,11.01
2023-11-04T03:44:58.976Z,11.00
2023-11-04T03:50:02.808Z,10.81
2023-11-04T03:55:06.447Z,10.79
2023-11-04T04:00:10.389Z,10.81
2023-11-04T04:05:13.504Z,10.69
2023-11-04T04:10:17.185Z,10.68
2023-11-04T04:15:20.337Z,10.73
2023-11-04T04:20:23.300Z,10.55
2023-11-04T04:25:26.207Z,10.72
2023-11-04T04:30:29.229Z,10.72
2023-11-04T04:35:32.240Z,10.59
2023-11-04T04:40:35.244Z,10.68
2023-11-04T04:45:41.972Z,10.76
2023-11-04T04:50:45.051Z,11.05
2023-11-04T04:55:48.987Z,10.89
2023-11-04T05:00:52.098Z,10.79
2023-11-04T05:05:55.419Z,10.83
2023-11-04T05:10:59.734Z,10.83
2023-11-04T05:16:02.757Z,11.03
2023-11-04T05:21:06.842Z,11.28
2023-11-04T05:26:09.864Z,11.23
2023-11-04T05:31:12.706Z,11.09
2023-11-04T05:36:19.946Z,11.25
2023-11-04T05:41:23.084Z,11.33
2023-11-04T05:46:26.090Z,11.50
2023-11-04T05:51:29.125Z,11.52
2023-11-04T05:56:32.110Z,11.40
2023-11-04T06:01:35.212Z,11.44
2023-11-04T06:06:38.309Z,11.29
2023-11-04T06:11:41.452Z,11.37
2023-11-04T06:16:44.749Z,11.43
2023-11-04T06:21:48.200Z,11.50
2023-11-04T06:26:51.289Z,11.52
2023-11-04T06:31:54.280Z,11.72
2023-11-04T06:36:57.350Z,11.57
2023-11-04T06:42:01.117Z,11.55
2023-11-04T06:47:04.228Z,11.64
2023-11-04T06:52:07.227Z,11.79
2023-11-04T06:57:10.248Z,11.79
2023-11-04T07:02:13.760Z,11.53
2023-11-04T07:07:16.864Z,11.75
2023-11-04T07:12:19.975Z,11.88
2023-11-04T07:17:23.002Z,12.09
2023-11-04T07:22:25.925Z,12.07
2023-11-04T07:27:29.399Z,12.10
2023-11-04T07:32:32.338Z,11.99
2023-11-04T07:37:35.522Z,11.96
2023-11-04T07:42:38.849Z,12.08
2023-11-04T07:47:42.567Z,12.22
2023-11-04T07:52:54.480Z,12.29
2023-11-04T07:58:02.078Z,12.32
2023-11-04T08:03:05.237Z,12.36
2023-11-04T08:08:11.496Z,12.34
2023-11-04T08:13:14.953Z,12.45
2023-11-04T08:18:18.200Z,12.39
2023-11-04T08:23:21.932Z,12.51
2023-11-04T08:28:26.683Z,12.63
2023-11-04T08:33:29.739Z,12.67
2023-11-04T08:38:34.233Z,12.61
2023-11-04T08:43:37.243Z,12.50
2023-11-04T08:48:41.994Z,12.57
2023-11-04T08:53:45.199Z,12.76
2023-11-04T08:58:48.412Z,12.73
2023-11-04T09:03:58.892Z,12.73
2023-11-04T09:09:10.613Z,12.74
2023-11-04T09:14:13.609Z,12.66
2023-11-04T09:19:17.047Z,12.88
2023-11-04T09:24:20.934Z,12.86
2023-11-04T09:29:25.690Z,12.93
2023-11-04T09:34:30.118Z,12.64
2023-11-04T09:39:33.918Z,12.83
2023-11-04T09:44:37.720Z,12.91
2023-11-04T09:49:40.777Z,12.99
2023-11-04T09:54:48.461Z,13.14
2023-11-04T09:59:51.842Z,13.00
2023-11-04T10:04:56.527Z,13.29
2023-11-04T10:09:59.754Z,13.30
2023-11-04T10:15:02.802Z,13.31
2023-11-04T10:20:12.599Z,13.67
2023-11-04T10:25:16.188Z,14.01
2023-11-04T10:30:19.600Z,13.82
2023-11-04T10:35:24.573Z,13.60
2023-11-04T10:40:28.114Z,13.39
2023-11-04T10:45:50.662Z,13.41
2023-11-04T10:51:08.928Z,13.62
2023-11-04T10:56:42.733Z,13.64
2023-11-04T11:01:48.232Z,13.73
2023-11-04T11:06:52.770Z,13.75
2023-11-04T11:12:03.546Z,13.79
2023-11-04T11:17:09.171Z,13.71
2023-11-04T11:22:25.416Z,13.99
2023-11-04T11:27:28.627Z,14.07
2023-11-04T11:32:36.363Z,14.08
2023-11-04T11:37:39.455Z,14.23
2023-11-04T11:42:42.791Z,14.03
2023-11-04T11:47:45.834Z,14.00
2023-11-04T11:52:48.984Z,14.51
2023-11-04T11:57:52.628Z,14.70
2023-11-04T12:02:56.124Z,14.86
2023-11-04T12:07:59.866Z,14.62
2023-11-04T12:13:03.125Z,14.55
2023-11-04T12:18:07.561Z,14.54
2023-11-04T12:23:12.062Z,14.51
2023-11-04T12:28:15.520Z,14.60
2023-11-04T12:33:21.256Z,14.97
2023-11-04T12:38:25.169Z,14.74
2023-11-04T12:43:29.403Z,14.16
2023-11-04T12:48:33.137Z,15.04
2023-11-04T12:53:36.433Z,15.43
2023-11-04T12:58:39.905Z,15.42
2023-11-04T13:03:43.414Z,16.21
2023-11-04T13:08:46.597Z,14.53
2023-11-04T13:13:49.597Z,14.76
2023-11-04T13:18:53.320Z,15.26
2023-11-04T13:23:56.424Z,14.35
2023-11-04T13:28:59.942Z,14.32
2023-11-04T13:34:03.548Z,16.38
2023-11-04T13:39:12.477Z,16.84
2023-11-04T13:44:16.128Z,17.11
2023-11-04T13:49:19.793Z,16.69
2023-11-04T13:54:23.476Z,15.58
2023-11-04T13:59:26.581Z,14.26
2023-11-04T14:04:29.635Z,14.51
2023-11-04T14:09:32.807Z,14.56
2023-11-04T14:14:36.154Z,13.36
2023-11-04T14:19:39.559Z,14.30
2023-11-04T14:24:42.715Z,14.02
2023-11-04T14:29:46.259Z,12.92
2023-11-04T14:34:50.101Z,14.11
2023-11-04T14:39:54.163Z,14.21
2023-11-04T14:44:57.749Z,13.16
2023-11-04T14:50:02.398Z,14.04
2023-11-04T14:55:07.704Z,13.13
2023-11-04T15:00:11.900Z,12.41
2023-11-04T15:05:14.932Z,13.48
2023-11-04T15:10:18.158Z,12.98
2023-11-04T15:15:21.210Z,11.73
2023-11-04T15:20:24.222Z,12.79
2023-11-04T15:25:27.240Z,13.68
2023-11-04T15:30:30.591Z,13.18
2023-11-04T15:35:34.406Z,12.11
2023-11-04T15:40:38.907Z,13.13
2023-11-04T15:45:42.040Z,13.56
2023-11-04T15:50:45.450Z,13.70
2023-11-04T15:55:48.698Z,12.72
2023-11-04T16:00:55.155Z,11.99
2023-11-04T16:05:58.135Z,12.84
2023-11-04T16:11:01.490Z,13.21
2023-11-04T16:16:07.097Z,13.49
2023-11-04T16:21:10.126Z,13.62
2023-11-04T16:26:14.547Z,13.72
2023-11-04T16:31:24.383Z,13.40
2023-11-04T16:36:27.693Z,11.56
2023-11-04T16:41:30.656Z,11.85
2023-11-04T16:46:33.674Z,12.44
2023-11-04T16:51:36.881Z,12.60
2023-11-04T16:56:40.197Z,12.70
2023-11-04T17:01:43.195Z,12.87
2023-11-04T17:06:46.221Z,13.10
2023-11-04T17:11:49.312Z,13.16
2023-11-04T17:16:52.523Z,13.19
2023-11-04T17:21:55.969Z,13.25
2023-11-04T17:26:59.047Z,13.17
2023-11-04T17:32:02.069Z,13.24
2023-11-04T17:37:05.132Z,13.28
2023-11-04T17:42:08.169Z,12.29
2023-11-04T17:47:11.180Z,10.31
2023-11-04T17:52:14.233Z,9.79
2023-11-04T17:57:17.293Z,10.93
2023-11-04T18:02:20.315Z,11.64
2023-11-04T18:07:25.193Z,11.95
2023-11-04T18:12:28.369Z,12.08
2023-11-04T18:17:31.445Z,12.22
2023-11-04T18:22:34.894Z,12.26
2023-11-04T18:27:51.089Z,12.30
2023-11-04T18:33:01.639Z,12.45
2023-11-04T18:38:04.849Z,12.34
2023-11-04T18:43:08.227Z,12.19
2023-11-04T18:48:11.416Z,12.03
2023-11-04T18:53:14.837Z,11.90
2023-11-04T18:58:17.963Z,11.63
2023-11-04T19:03:21.059Z,11.53
2023-11-04T19:08:25.103Z,11.54
2023-11-04T19:13:28.232Z,11.59
2023-11-04T19:18:31.486Z,11.43
2023-11-04T19:23:35.605Z,11.35
2023-11-04T19:28:38.670Z,11.32
2023-11-04T19:33:41.840Z,11.18
2023-11-04T19:38:45.110Z,11.02
2023-11-04T19:43:48.937Z,11.10
2023-11-04T19:48:52.252Z,11.11
2023-11-04T19:53:55.639Z,11.31
2023-11-04T19:58:58.984Z,11.46
2023-11-04T20:04:02.950Z,11.37
2023-11-04T20:09:07.226Z,11.33
2023-11-04T20:14:11.042Z,11.33
2023-11-04T20:19:16.414Z,11.46
2023-11-04T20:24:22.273Z,11.50
2023-11-04T20:29:26.106Z,11.41
2023-11-04T20:34:29.357Z,11.29
2023-11-04T20:39:33.044Z,11.11
2023-11-04T20:44:36.352Z,11.03
2023-11-04T20:49:40.040Z,11.08
2023-11-04T20:54:43.489Z,11.01
2023-11-04T20:59:47.013Z,10.93
2023-11-04T21:04:50.130Z,10.89
2023-11-04T21:09:53.510Z,10.97
2023-11-04T21:14:56.961Z,11.06
2023-11-04T21:20:00.986Z,11.26
2023-11-04T21:25:04.206Z,11.15
2023-11-04T21:30:08.944Z,11.31
2023-11-04T21:35:12.057Z,11.19
2023-11-04T21:40:15.291Z,11.26
2023-11-04T21:45:19.566Z,11.37
2023-11-04T21:50:26.800Z,11.14
2023-11-04T21:55:29.763Z,11.36
2023-11-04T22:00:32.817Z,11.35
2023-11-04T22:05:37.357Z,11.16
2023-11-04T22:10:41.693Z,11.21
2023-11-04T22:15:45.116Z,11.26
2023-11-04T22:20:48.122Z,11.17
2023-11-04T22:25:51.474Z,10.95
2023-11-04T22:30:54.580Z,10.61
2023-11-04T22:35:57.554Z,10.54
2023-11-04T22:41:02.267Z,10.44
2023-11-04T22:46:06.047Z,10.34
2023-11-04T22:51:09.039Z,10.42
2023-11-04T22:56:12.042Z,10.46
2023-11-04T23:01:21.253Z,10.52
2023-11-04T23:06:26.959Z,10.32
2023-11-04T23:11:32.184Z,10.04
2023-11-04T23:16:35.609Z,9.93
2023-11-04T23:21:38.646Z,9.67
2023-11-04T23:26:41.686Z,9.65
2023-11-04T23:31:44.766Z,9.37
2023-11-04T23:36:47.779Z,9.49
2023-11-04T23:41:50.990Z,9.67
2023-11-04T23:46:54.088Z,9.69
2023-11-04T23:51:57.206Z,9.78
2023-11-04T23:57:00.204Z,9.68
